sensor_id;sensor_type;location;lat;lon;timestamp;pressure;altitude;pressure_sealevel;temperature;humidity
68634;BME280;55625;47.072;22.192;2022-07-22T00:01:34;99708.53;;;18.67;46.57
68634;BME280;55625;47.072;22.192;2022-07-22T00:04:00;99712.50;;;18.69;45.91
68634;BME280;55625;47.072;22.192;2022-07-22T00:06:28;99714.09;;;18.70;46.17
68634;BME280;55625;47.072;22.192;2022-07-22T00:08:55;99715.06;;;18.67;46.26
68634;BME280;55625;47.072;22.192;2022-07-22T00:11:22;99707.75;;;18.66;46.01
68634;BME280;55625;47.072;22.192;2022-07-22T00:13:48;99719.25;;;18.66;45.74
68634;BME280;55625;47.072;22.192;2022-07-22T00:16:14;99717.94;;;18.67;45.59
68634;BME280;55625;47.072;22.192;2022-07-22T00:18:40;99721.56;;;18.62;46.08
68634;BME280;55625;47.072;22.192;2022-07-22T00:21:06;99719.19;;;18.60;46.05
68634;BME280;55625;47.072;22.192;2022-07-22T00:23:32;99720.44;;;18.54;46.41
68634;BME280;55625;47.072;22.192;2022-07-22T00:25:58;99725.91;;;18.52;47.07
68634;BME280;55625;47.072;22.192;2022-07-22T00:28:24;99718.81;;;18.47;47.56
68634;BME280;55625;47.072;22.192;2022-07-22T00:30:50;99722.44;;;18.42;48.11
68634;BME280;55625;47.072;22.192;2022-07-22T00:33:16;99729.97;;;18.40;48.45
68634;BME280;55625;47.072;22.192;2022-07-22T00:35:42;99723.16;;;18.37;48.59
68634;BME280;55625;47.072;22.192;2022-07-22T00:38:08;99728.59;;;18.35;47.93
68634;BME280;55625;47.072;22.192;2022-07-22T00:40:34;99731.44;;;18.29;48.12
68634;BME280;55625;47.072;22.192;2022-07-22T00:43:00;99719.56;;;18.16;48.59
68634;BME280;55625;47.072;22.192;2022-07-22T00:45:27;99730.44;;;18.07;48.78
68634;BME280;55625;47.072;22.192;2022-07-22T00:47:53;99729.50;;;17.95;48.97
68634;BME280;55625;47.072;22.192;2022-07-22T00:50:19;99731.22;;;17.87;49.46
68634;BME280;55625;47.072;22.192;2022-07-22T00:52:46;99712.38;;;17.80;50.11
68634;BME280;55625;47.072;22.192;2022-07-22T00:55:13;99714.16;;;17.78;50.24
68634;BME280;55625;47.072;22.192;2022-07-22T00:57:39;99718.03;;;17.75;50.59
68634;BME280;55625;47.072;22.192;2022-07-22T01:00:11;99716.94;;;17.72;50.70
68634;BME280;55625;47.072;22.192;2022-07-22T01:02:38;99720.88;;;17.75;49.67
68634;BME280;55625;47.072;22.192;2022-07-22T01:05:05;99719.69;;;17.81;49.37
68634;BME280;55625;47.072;22.192;2022-07-22T01:07:32;99720.75;;;17.84;48.80
68634;BME280;55625;47.072;22.192;2022-07-22T01:09:58;99723.97;;;17.91;48.93
68634;BME280;55625;47.072;22.192;2022-07-22T01:12:24;99728.13;;;17.90;48.74
68634;BME280;55625;47.072;22.192;2022-07-22T01:14:50;99723.75;;;17.95;48.42
68634;BME280;55625;47.072;22.192;2022-07-22T01:17:16;99723.53;;;17.98;47.69
68634;BME280;55625;47.072;22.192;2022-07-22T01:19:43;99722.00;;;18.03;47.02
68634;BME280;55625;47.072;22.192;2022-07-22T01:22:09;99732.19;;;18.04;47.25
68634;BME280;55625;47.072;22.192;2022-07-22T01:24:35;99724.09;;;18.03;47.47
68634;BME280;55625;47.072;22.192;2022-07-22T01:27:01;99729.28;;;17.98;47.52
68634;BME280;55625;47.072;22.192;2022-07-22T01:29:27;99728.94;;;17.91;48.25
68634;BME280;55625;47.072;22.192;2022-07-22T01:31:54;99723.91;;;17.86;49.26
68634;BME280;55625;47.072;22.192;2022-07-22T01:34:19;99735.41;;;17.86;49.16
68634;BME280;55625;47.072;22.192;2022-07-22T01:36:45;99727.78;;;17.83;49.33
68634;BME280;55625;47.072;22.192;2022-07-22T01:39:11;99726.34;;;17.73;49.46
68634;BME280;55625;47.072;22.192;2022-07-22T01:41:38;99727.53;;;17.66;49.31
68634;BME280;55625;47.072;22.192;2022-07-22T01:44:04;99725.63;;;17.57;50.54
68634;BME280;55625;47.072;22.192;2022-07-22T01:46:29;99732.88;;;17.53;50.85
68634;BME280;55625;47.072;22.192;2022-07-22T01:48:56;99735.66;;;17.47;50.04
68634;BME280;55625;47.072;22.192;2022-07-22T01:51:22;99746.03;;;17.45;49.99
68634;BME280;55625;47.072;22.192;2022-07-22T01:53:48;99736.06;;;17.40;49.96
68634;BME280;55625;47.072;22.192;2022-07-22T01:56:14;99731.06;;;17.35;50.17
68634;BME280;55625;47.072;22.192;2022-07-22T01:58:40;99735.41;;;17.30;50.43
68634;BME280;55625;47.072;22.192;2022-07-22T02:01:07;99732.97;;;17.23;51.16
68634;BME280;55625;47.072;22.192;2022-07-22T02:03:33;99727.66;;;17.16;51.32
68634;BME280;55625;47.072;22.192;2022-07-22T02:05:59;99729.56;;;17.04;51.86
68634;BME280;55625;47.072;22.192;2022-07-22T02:08:25;99731.56;;;16.98;51.71
68634;BME280;55625;47.072;22.192;2022-07-22T02:10:51;99734.44;;;16.98;51.09
68634;BME280;55625;47.072;22.192;2022-07-22T02:13:16;99739.66;;;17.00;50.54
68634;BME280;55625;47.072;22.192;2022-07-22T02:15:42;99726.41;;;17.02;50.02
68634;BME280;55625;47.072;22.192;2022-07-22T02:18:17;99737.38;;;17.04;50.10
68634;BME280;55625;47.072;22.192;2022-07-22T02:20:44;99734.22;;;17.02;50.35
68634;BME280;55625;47.072;22.192;2022-07-22T02:23:10;99731.28;;;16.96;49.71
68634;BME280;55625;47.072;22.192;2022-07-22T02:25:37;99740.66;;;16.97;49.57
68634;BME280;55625;47.072;22.192;2022-07-22T02:28:04;99729.78;;;17.01;49.40
68634;BME280;55625;47.072;22.192;2022-07-22T02:30:30;99735.59;;;17.06;49.42
68634;BME280;55625;47.072;22.192;2022-07-22T02:32:57;99734.78;;;17.06;49.36
68634;BME280;55625;47.072;22.192;2022-07-22T02:35:23;99747.25;;;17.03;49.97
68634;BME280;55625;47.072;22.192;2022-07-22T02:37:49;99746.59;;;16.93;50.35
68634;BME280;55625;47.072;22.192;2022-07-22T02:40:15;99736.13;;;16.90;50.92
68634;BME280;55625;47.072;22.192;2022-07-22T02:42:40;99741.56;;;16.88;50.58
68634;BME280;55625;47.072;22.192;2022-07-22T02:45:07;99752.47;;;16.84;51.03
68634;BME280;55625;47.072;22.192;2022-07-22T02:47:33;99747.19;;;16.83;51.37
68634;BME280;55625;47.072;22.192;2022-07-22T02:49:59;99748.19;;;16.80;51.48
68634;BME280;55625;47.072;22.192;2022-07-22T02:52:25;99746.03;;;16.74;51.51
68634;BME280;55625;47.072;22.192;2022-07-22T02:54:51;99753.53;;;16.72;52.31
68634;BME280;55625;47.072;22.192;2022-07-22T02:57:17;99756.31;;;16.66;53.03
68634;BME280;55625;47.072;22.192;2022-07-22T02:59:43;99754.03;;;16.56;53.64
68634;BME280;55625;47.072;22.192;2022-07-22T03:02:09;99755.41;;;16.45;53.78
68634;BME280;55625;47.072;22.192;2022-07-22T03:04:34;99757.38;;;16.39;53.72
68634;BME280;55625;47.072;22.192;2022-07-22T03:07:00;99748.88;;;16.30;54.38
68634;BME280;55625;47.072;22.192;2022-07-22T03:09:26;99755.16;;;16.20;54.49
68634;BME280;55625;47.072;22.192;2022-07-22T03:11:52;99752.50;;;16.16;55.61
68634;BME280;55625;47.072;22.192;2022-07-22T03:14:18;99752.81;;;16.18;54.18
68634;BME280;55625;47.072;22.192;2022-07-22T03:16:44;99754.09;;;16.17;53.86
68634;BME280;55625;47.072;22.192;2022-07-22T03:44:08;99754.03;;;16.56;53.36
68634;BME280;55625;47.072;22.192;2022-07-22T03:46:34;99760.34;;;16.60;54.33
68634;BME280;55625;47.072;22.192;2022-07-22T03:48:59;99760.94;;;16.64;52.57
68634;BME280;55625;47.072;22.192;2022-07-22T03:51:25;99758.47;;;16.71;52.78
68634;BME280;55625;47.072;22.192;2022-07-22T03:53:51;99750.25;;;16.79;52.51
68634;BME280;55625;47.072;22.192;2022-07-22T03:56:17;99756.13;;;16.85;51.47
68634;BME280;55625;47.072;22.192;2022-07-22T03:58:43;99750.75;;;16.92;50.98
68634;BME280;55625;47.072;22.192;2022-07-22T04:01:09;99742.81;;;17.02;49.41
68634;BME280;55625;47.072;22.192;2022-07-22T04:03:35;99750.28;;;17.14;48.19
68634;BME280;55625;47.072;22.192;2022-07-22T04:06:01;99744.16;;;17.21;48.07
68634;BME280;55625;47.072;22.192;2022-07-22T04:08:26;99745.09;;;17.33;47.41
68634;BME280;55625;47.072;22.192;2022-07-22T04:10:52;99746.53;;;17.43;47.04
68634;BME280;55625;47.072;22.192;2022-07-22T04:13:18;99749.50;;;17.49;47.48
68634;BME280;55625;47.072;22.192;2022-07-22T04:15:44;99756.19;;;17.60;46.43
68634;BME280;55625;47.072;22.192;2022-07-22T04:18:10;99769.41;;;17.73;47.05
68634;BME280;55625;47.072;22.192;2022-07-22T04:20:36;99756.06;;;17.90;46.49
68634;BME280;55625;47.072;22.192;2022-07-22T04:23:01;99762.81;;;18.07;45.63
68634;BME280;55625;47.072;22.192;2022-07-22T04:25:27;99748.63;;;18.24;45.53
68634;BME280;55625;47.072;22.192;2022-07-22T04:27:53;99750.38;;;18.42;45.45
68634;BME280;55625;47.072;22.192;2022-07-22T04:30:20;99753.41;;;18.58;45.41
68634;BME280;55625;47.072;22.192;2022-07-22T04:32:46;99757.81;;;18.80;44.96
68634;BME280;55625;47.072;22.192;2022-07-22T04:35:11;99750.06;;;18.91;45.11
68634;BME280;55625;47.072;22.192;2022-07-22T04:37:37;99753.84;;;19.09;44.84
68634;BME280;55625;47.072;22.192;2022-07-22T04:40:04;99764.38;;;19.17;44.93
68634;BME280;55625;47.072;22.192;2022-07-22T04:42:30;99769.13;;;19.26;45.98
68634;BME280;55625;47.072;22.192;2022-07-22T04:44:56;99768.19;;;19.40;45.71
68634;BME280;55625;47.072;22.192;2022-07-22T04:47:22;99758.31;;;19.52;46.39
68634;BME280;55625;47.072;22.192;2022-07-22T04:49:47;99762.88;;;19.65;46.94
68634;BME280;55625;47.072;22.192;2022-07-22T04:52:13;99754.28;;;19.81;45.57
68634;BME280;55625;47.072;22.192;2022-07-22T04:54:39;99761.72;;;19.99;44.53
68634;BME280;55625;47.072;22.192;2022-07-22T04:57:05;99763.03;;;20.09;43.54
68634;BME280;55625;47.072;22.192;2022-07-22T04:59:31;99759.44;;;20.26;43.35
68634;BME280;55625;47.072;22.192;2022-07-22T05:01:57;99761.59;;;20.42;42.42
68634;BME280;55625;47.072;22.192;2022-07-22T05:04:23;99754.81;;;20.56;41.93
68634;BME280;55625;47.072;22.192;2022-07-22T05:06:49;99762.94;;;20.74;42.01
68634;BME280;55625;47.072;22.192;2022-07-22T05:09:15;99764.78;;;20.94;42.49
68634;BME280;55625;47.072;22.192;2022-07-22T05:11:41;99763.75;;;21.14;41.72
68634;BME280;55625;47.072;22.192;2022-07-22T05:14:06;99760.03;;;21.42;41.50
68634;BME280;55625;47.072;22.192;2022-07-22T05:16:32;99764.75;;;21.56;41.14
68634;BME280;55625;47.072;22.192;2022-07-22T05:19:00;99756.53;;;21.77;40.11
68634;BME280;55625;47.072;22.192;2022-07-22T05:21:26;99759.84;;;21.97;40.20
68634;BME280;55625;47.072;22.192;2022-07-22T05:23:52;99760.31;;;22.18;40.33
68634;BME280;55625;47.072;22.192;2022-07-22T05:26:17;99764.63;;;22.47;39.46
68634;BME280;55625;47.072;22.192;2022-07-22T05:28:43;99762.91;;;22.69;37.59
68634;BME280;55625;47.072;22.192;2022-07-22T05:31:09;99766.16;;;22.89;38.11
68634;BME280;55625;47.072;22.192;2022-07-22T05:33:35;99767.56;;;23.13;37.10
68634;BME280;55625;47.072;22.192;2022-07-22T05:36:01;99766.88;;;23.31;35.95
68634;BME280;55625;47.072;22.192;2022-07-22T05:38:28;99768.50;;;23.51;34.45
68634;BME280;55625;47.072;22.192;2022-07-22T05:40:54;99771.25;;;23.68;34.19
68634;BME280;55625;47.072;22.192;2022-07-22T05:43:19;99776.38;;;23.80;34.03
68634;BME280;55625;47.072;22.192;2022-07-22T05:45:45;99775.16;;;23.95;34.18
68634;BME280;55625;47.072;22.192;2022-07-22T05:48:11;99778.16;;;24.08;32.79
68634;BME280;55625;47.072;22.192;2022-07-22T05:50:37;99778.31;;;24.15;32.65
68634;BME280;55625;47.072;22.192;2022-07-22T05:53:03;99773.84;;;24.14;32.71
68634;BME280;55625;47.072;22.192;2022-07-22T05:55:29;99767.13;;;24.25;31.59
68634;BME280;55625;47.072;22.192;2022-07-22T05:57:55;99773.25;;;24.40;31.55
68634;BME280;55625;47.072;22.192;2022-07-22T06:00:21;99780.63;;;24.41;31.17
68634;BME280;55625;47.072;22.192;2022-07-22T06:02:47;99770.22;;;24.52;31.58
68634;BME280;55625;47.072;22.192;2022-07-22T06:05:13;99774.41;;;24.69;31.78
68634;BME280;55625;47.072;22.192;2022-07-22T06:07:39;99781.75;;;24.89;32.44
68634;BME280;55625;47.072;22.192;2022-07-22T06:10:05;99773.72;;;25.14;31.28
68634;BME280;55625;47.072;22.192;2022-07-22T06:12:31;99767.25;;;25.21;30.96
68634;BME280;55625;47.072;22.192;2022-07-22T06:14:57;99771.09;;;25.43;30.19
68634;BME280;55625;47.072;22.192;2022-07-22T06:17:23;99776.81;;;25.61;30.44
68634;BME280;55625;47.072;22.192;2022-07-22T06:19:49;99776.19;;;25.82;28.88
68634;BME280;55625;47.072;22.192;2022-07-22T06:22:14;99779.66;;;25.93;28.47
68634;BME280;55625;47.072;22.192;2022-07-22T06:24:43;99778.53;;;25.96;28.39
68634;BME280;55625;47.072;22.192;2022-07-22T06:27:10;99781.75;;;26.19;28.86
68634;BME280;55625;47.072;22.192;2022-07-22T06:29:36;99772.47;;;26.34;28.70
68634;BME280;55625;47.072;22.192;2022-07-22T06:32:02;99781.16;;;26.47;28.26
68634;BME280;55625;47.072;22.192;2022-07-22T06:34:28;99777.09;;;26.64;27.98
68634;BME280;55625;47.072;22.192;2022-07-22T06:36:55;99773.50;;;26.71;27.90
68634;BME280;55625;47.072;22.192;2022-07-22T06:39:21;99758.16;;;26.91;27.12
68634;BME280;55625;47.072;22.192;2022-07-22T06:41:47;99771.06;;;27.16;28.27
68634;BME280;55625;47.072;22.192;2022-07-22T06:44:13;99764.28;;;27.42;27.55
68634;BME280;55625;47.072;22.192;2022-07-22T06:46:39;99772.25;;;27.63;27.52
68634;BME280;55625;47.072;22.192;2022-07-22T06:49:04;99772.97;;;27.84;27.37
68634;BME280;55625;47.072;22.192;2022-07-22T06:51:31;99770.16;;;27.99;27.45
68634;BME280;55625;47.072;22.192;2022-07-22T06:53:57;99774.16;;;28.17;27.09
68634;BME280;55625;47.072;22.192;2022-07-22T06:56:22;99775.03;;;28.40;27.59
68634;BME280;55625;47.072;22.192;2022-07-22T06:58:48;99774.16;;;28.61;26.19
68634;BME280;55625;47.072;22.192;2022-07-22T07:01:14;99778.25;;;28.73;26.30
68634;BME280;55625;47.072;22.192;2022-07-22T07:03:40;99774.84;;;28.90;25.25
68634;BME280;55625;47.072;22.192;2022-07-22T07:06:08;99781.47;;;29.05;25.51
68634;BME280;55625;47.072;22.192;2022-07-22T07:08:38;99772.53;;;29.26;25.50
68634;BME280;55625;47.072;22.192;2022-07-22T07:11:04;99772.19;;;29.53;25.64
68634;BME280;55625;47.072;22.192;2022-07-22T07:13:30;99771.00;;;29.71;25.95
68634;BME280;55625;47.072;22.192;2022-07-22T07:15:56;99770.97;;;29.86;24.47
68634;BME280;55625;47.072;22.192;2022-07-22T07:18:22;99767.06;;;30.07;24.66
68634;BME280;55625;47.072;22.192;2022-07-22T07:20:48;99767.34;;;30.26;23.63
68634;BME280;55625;47.072;22.192;2022-07-22T07:23:14;99769.97;;;30.54;22.73
68634;BME280;55625;47.072;22.192;2022-07-22T07:25:40;99763.44;;;30.79;22.56
68634;BME280;55625;47.072;22.192;2022-07-22T07:28:06;99770.75;;;30.95;22.33
68634;BME280;55625;47.072;22.192;2022-07-22T07:30:32;99773.22;;;31.06;21.96
68634;BME280;55625;47.072;22.192;2022-07-22T07:32:58;99770.78;;;31.20;19.33
68634;BME280;55625;47.072;22.192;2022-07-22T07:35:26;99767.16;;;31.37;20.39
68634;BME280;55625;47.072;22.192;2022-07-22T07:37:53;99777.56;;;31.55;20.11
68634;BME280;55625;47.072;22.192;2022-07-22T07:40:19;99776.84;;;31.72;19.20
68634;BME280;55625;47.072;22.192;2022-07-22T07:42:45;99775.91;;;32.04;20.94
68634;BME280;55625;47.072;22.192;2022-07-22T07:45:12;99775.59;;;32.34;18.92
68634;BME280;55625;47.072;22.192;2022-07-22T07:47:37;99768.94;;;32.51;18.76
68634;BME280;55625;47.072;22.192;2022-07-22T07:50:05;99764.09;;;32.73;17.30
68634;BME280;55625;47.072;22.192;2022-07-22T07:52:38;99767.00;;;32.81;17.62
68634;BME280;55625;47.072;22.192;2022-07-22T07:55:05;99766.13;;;32.97;18.04
68634;BME280;55625;47.072;22.192;2022-07-22T07:57:32;99771.13;;;33.04;16.55
68634;BME280;55625;47.072;22.192;2022-07-22T07:59:58;99765.59;;;33.09;16.21
68634;BME280;55625;47.072;22.192;2022-07-22T08:02:24;99772.00;;;33.24;16.92
68634;BME280;55625;47.072;22.192;2022-07-22T08:04:50;99766.88;;;33.61;18.39
68634;BME280;55625;47.072;22.192;2022-07-22T08:07:16;99766.69;;;34.06;17.82
68634;BME280;55625;47.072;22.192;2022-07-22T08:09:42;99765.78;;;34.32;16.27
68634;BME280;55625;47.072;22.192;2022-07-22T08:12:08;99775.53;;;34.64;16.48
68634;BME280;55625;47.072;22.192;2022-07-22T08:14:34;99767.13;;;34.79;15.88
68634;BME280;55625;47.072;22.192;2022-07-22T08:17:01;99754.84;;;34.83;15.70
68634;BME280;55625;47.072;22.192;2022-07-22T08:19:27;99754.81;;;35.02;15.18
68634;BME280;55625;47.072;22.192;2022-07-22T08:21:52;99753.81;;;35.19;15.48
68634;BME280;55625;47.072;22.192;2022-07-22T08:24:18;99752.34;;;35.39;16.68
68634;BME280;55625;47.072;22.192;2022-07-22T08:26:44;99759.72;;;35.60;17.29
68634;BME280;55625;47.072;22.192;2022-07-22T08:29:10;99751.41;;;35.68;14.74
68634;BME280;55625;47.072;22.192;2022-07-22T08:31:37;99751.41;;;35.68;15.69
68634;BME280;55625;47.072;22.192;2022-07-22T08:34:04;99760.22;;;35.77;14.84
68634;BME280;55625;47.072;22.192;2022-07-22T08:36:31;99758.72;;;35.67;16.23
68634;BME280;55625;47.072;22.192;2022-07-22T08:38:57;99763.06;;;35.97;17.04
68634;BME280;55625;47.072;22.192;2022-07-22T08:41:24;99767.06;;;36.23;16.35
68634;BME280;55625;47.072;22.192;2022-07-22T08:43:51;99766.31;;;36.22;15.41
68634;BME280;55625;47.072;22.192;2022-07-22T08:46:17;99765.91;;;36.16;15.66
68634;BME280;55625;47.072;22.192;2022-07-22T08:48:44;99766.94;;;36.21;16.04
68634;BME280;55625;47.072;22.192;2022-07-22T08:51:11;99767.00;;;36.32;16.57
68634;BME280;55625;47.072;22.192;2022-07-22T08:53:36;99765.38;;;36.41;16.74
68634;BME280;55625;47.072;22.192;2022-07-22T08:56:02;99763.41;;;36.67;15.82
68634;BME280;55625;47.072;22.192;2022-07-22T08:58:28;99772.28;;;37.00;16.30
68634;BME280;55625;47.072;22.192;2022-07-22T09:01:14;99765.06;;;36.91;15.01
68634;BME280;55625;47.072;22.192;2022-07-22T09:03:56;99757.97;;;36.85;14.93
68634;BME280;55625;47.072;22.192;2022-07-22T09:06:27;99755.53;;;36.93;15.67
68634;BME280;55625;47.072;22.192;2022-07-22T09:09:06;99754.19;;;37.29;16.08
68634;BME280;55625;47.072;22.192;2022-07-22T09:11:33;99760.13;;;37.41;16.05
68634;BME280;55625;47.072;22.192;2022-07-22T09:14:00;99750.19;;;37.59;16.42
68634;BME280;55625;47.072;22.192;2022-07-22T09:16:46;99749.28;;;37.80;15.44
68634;BME280;55625;47.072;22.192;2022-07-22T09:19:14;99748.88;;;37.86;15.98
68634;BME280;55625;47.072;22.192;2022-07-22T09:21:43;99747.81;;;38.05;16.03
68634;BME280;55625;47.072;22.192;2022-07-22T09:24:30;99760.16;;;38.13;16.18
68634;BME280;55625;47.072;22.192;2022-07-22T09:26:56;99756.06;;;38.18;15.94
68634;BME280;55625;47.072;22.192;2022-07-22T09:29:22;99761.13;;;38.41;16.22
68634;BME280;55625;47.072;22.192;2022-07-22T09:31:52;99760.44;;;38.17;15.33
68634;BME280;55625;47.072;22.192;2022-07-22T09:34:31;99755.00;;;38.13;15.94
68634;BME280;55625;47.072;22.192;2022-07-22T09:37:00;99749.56;;;38.33;15.93
68634;BME280;55625;47.072;22.192;2022-07-22T09:39:28;99752.66;;;38.61;15.56
68634;BME280;55625;47.072;22.192;2022-07-22T09:42:03;99749.09;;;38.76;15.54
68634;BME280;55625;47.072;22.192;2022-07-22T09:44:29;99755.50;;;38.84;15.29
68634;BME280;55625;47.072;22.192;2022-07-22T09:46:55;99746.38;;;38.80;14.80
68634;BME280;55625;47.072;22.192;2022-07-22T09:49:36;99749.00;;;38.74;15.79
68634;BME280;55625;47.072;22.192;2022-07-22T09:52:06;99746.66;;;38.98;15.40
68634;BME280;55625;47.072;22.192;2022-07-22T09:54:32;99739.03;;;39.20;14.69
68634;BME280;55625;47.072;22.192;2022-07-22T09:56:58;99747.19;;;39.20;14.98
68634;BME280;55625;47.072;22.192;2022-07-22T09:59:25;99739.91;;;39.23;13.76
68634;BME280;55625;47.072;22.192;2022-07-22T10:01:54;99739.66;;;39.19;13.30
68634;BME280;55625;47.072;22.192;2022-07-22T10:04:21;99745.81;;;39.09;15.00
68634;BME280;55625;47.072;22.192;2022-07-22T10:06:51;99748.28;;;39.40;15.01
68634;BME280;55625;47.072;22.192;2022-07-22T10:09:18;99736.59;;;39.17;13.26
68634;BME280;55625;47.072;22.192;2022-07-22T10:11:46;99737.28;;;38.90;13.80
68634;BME280;55625;47.072;22.192;2022-07-22T10:14:18;99732.69;;;39.00;13.60
68634;BME280;55625;47.072;22.192;2022-07-22T10:16:44;99732.13;;;38.90;13.64
68634;BME280;55625;47.072;22.192;2022-07-22T10:19:11;99735.91;;;38.53;14.26
68634;BME280;55625;47.072;22.192;2022-07-22T10:21:38;99738.31;;;38.69;13.99
68634;BME280;55625;47.072;22.192;2022-07-22T10:24:15;99722.34;;;39.01;14.43
68634;BME280;55625;47.072;22.192;2022-07-22T10:26:57;99735.53;;;39.37;13.60
68634;BME280;55625;47.072;22.192;2022-07-22T10:40:25;99724.75;;;38.91;12.95
68634;BME280;55625;47.072;22.192;2022-07-22T10:45:48;99727.44;;;38.11;13.70
68634;BME280;55625;47.072;22.192;2022-07-22T10:48:18;99729.38;;;38.18;12.68
68634;BME280;55625;47.072;22.192;2022-07-22T10:56:04;99726.44;;;38.69;14.63
68634;BME280;55625;47.072;22.192;2022-07-22T11:01:07;99721.44;;;38.60;14.79
68634;BME280;55625;47.072;22.192;2022-07-22T11:03:36;99719.25;;;38.35;14.50
68634;BME280;55625;47.072;22.192;2022-07-22T11:06:27;99719.06;;;38.44;14.63
68634;BME280;55625;47.072;22.192;2022-07-22T11:09:14;99708.00;;;38.70;14.76
68634;BME280;55625;47.072;22.192;2022-07-22T11:11:50;99716.47;;;38.76;14.01
68634;BME280;55625;47.072;22.192;2022-07-22T11:14:30;99716.78;;;38.68;13.07
68634;BME280;55625;47.072;22.192;2022-07-22T11:17:06;99717.34;;;38.53;12.98
68634;BME280;55625;47.072;22.192;2022-07-22T11:19:32;99708.19;;;38.49;14.17
68634;BME280;55625;47.072;22.192;2022-07-22T11:22:08;99706.22;;;38.65;14.40
68634;BME280;55625;47.072;22.192;2022-07-22T11:24:36;99705.75;;;38.20;14.31
68634;BME280;55625;47.072;22.192;2022-07-22T11:27:04;99703.78;;;37.99;15.27
68634;BME280;55625;47.072;22.192;2022-07-22T11:29:39;99705.44;;;38.39;15.26
68634;BME280;55625;47.072;22.192;2022-07-22T11:32:09;99701.44;;;38.60;14.77
68634;BME280;55625;47.072;22.192;2022-07-22T11:34:38;99696.34;;;38.74;14.19
68634;BME280;55625;47.072;22.192;2022-07-22T11:37:08;99694.25;;;38.77;14.40
68634;BME280;55625;47.072;22.192;2022-07-22T11:39:34;99695.88;;;38.66;13.93
68634;BME280;55625;47.072;22.192;2022-07-22T11:42:01;99694.91;;;38.25;14.00
68634;BME280;55625;47.072;22.192;2022-07-22T11:44:34;99695.34;;;38.44;14.49
68634;BME280;55625;47.072;22.192;2022-07-22T11:47:02;99691.56;;;38.30;14.26
68634;BME280;55625;47.072;22.192;2022-07-22T11:49:32;99690.56;;;38.14;14.42
68634;BME280;55625;47.072;22.192;2022-07-22T11:52:00;99680.78;;;38.11;14.17
68634;BME280;55625;47.072;22.192;2022-07-22T11:54:27;99679.19;;;38.22;14.98
68634;BME280;55625;47.072;22.192;2022-07-22T11:56:53;99681.94;;;38.18;14.15
68634;BME280;55625;47.072;22.192;2022-07-22T11:59:19;99682.97;;;38.11;14.85
68634;BME280;55625;47.072;22.192;2022-07-22T12:01:47;99675.34;;;38.19;15.21
68634;BME280;55625;47.072;22.192;2022-07-22T12:04:17;99668.59;;;38.31;14.67
68634;BME280;55625;47.072;22.192;2022-07-22T12:06:44;99659.59;;;38.29;14.36
68634;BME280;55625;47.072;22.192;2022-07-22T12:11:48;99661.97;;;38.07;14.26
68634;BME280;55625;47.072;22.192;2022-07-22T12:14:21;99664.66;;;37.77;14.08
68634;BME280;55625;47.072;22.192;2022-07-22T12:17:10;99651.09;;;37.25;14.28
68634;BME280;55625;47.072;22.192;2022-07-22T12:19:37;99662.41;;;37.17;14.86
68634;BME280;55625;47.072;22.192;2022-07-22T12:22:18;99657.50;;;37.10;14.20
68634;BME280;55625;47.072;22.192;2022-07-22T12:24:57;99663.81;;;37.16;15.04
68634;BME280;55625;47.072;22.192;2022-07-22T12:27:23;99658.13;;;36.97;14.58
68634;BME280;55625;47.072;22.192;2022-07-22T12:29:49;99651.19;;;36.81;15.98
68634;BME280;55625;47.072;22.192;2022-07-22T12:32:27;99650.56;;;37.06;15.53
68634;BME280;55625;47.072;22.192;2022-07-22T12:35:01;99645.38;;;37.53;15.10
68634;BME280;55625;47.072;22.192;2022-07-22T12:37:33;99646.13;;;37.77;15.16
68634;BME280;55625;47.072;22.192;2022-07-22T12:40:17;99643.19;;;38.02;14.79
68634;BME280;55625;47.072;22.192;2022-07-22T12:42:46;99642.88;;;38.10;14.98
68634;BME280;55625;47.072;22.192;2022-07-22T12:45:19;99635.88;;;38.29;15.55
68634;BME280;55625;47.072;22.192;2022-07-22T12:48:06;99630.41;;;38.37;15.29
68634;BME280;55625;47.072;22.192;2022-07-22T12:50:42;99625.47;;;38.41;14.62
68634;BME280;55625;47.072;22.192;2022-07-22T12:53:11;99628.31;;;38.39;14.13
68634;BME280;55625;47.072;22.192;2022-07-22T12:55:57;99626.00;;;38.38;15.55
68634;BME280;55625;47.072;22.192;2022-07-22T12:58:27;99633.41;;;38.25;14.22
68634;BME280;55625;47.072;22.192;2022-07-22T13:00:58;99627.78;;;38.17;14.35
68634;BME280;55625;47.072;22.192;2022-07-22T13:03:25;99633.28;;;37.98;15.18
68634;BME280;55625;47.072;22.192;2022-07-22T13:05:55;99617.97;;;38.15;15.14
68634;BME280;55625;47.072;22.192;2022-07-22T13:08:23;99621.13;;;38.05;15.48
68634;BME280;55625;47.072;22.192;2022-07-22T13:10:50;99614.97;;;38.01;15.95
68634;BME280;55625;47.072;22.192;2022-07-22T13:13:17;99625.38;;;37.65;14.84
68634;BME280;55625;47.072;22.192;2022-07-22T13:15:43;99621.44;;;37.49;15.62
68634;BME280;55625;47.072;22.192;2022-07-22T13:18:09;99623.47;;;37.58;16.04
68634;BME280;55625;47.072;22.192;2022-07-22T13:20:35;99624.88;;;37.57;14.63
68634;BME280;55625;47.072;22.192;2022-07-22T13:23:01;99617.81;;;37.50;15.64
68634;BME280;55625;47.072;22.192;2022-07-22T13:25:27;99617.78;;;37.62;15.60
68634;BME280;55625;47.072;22.192;2022-07-22T13:27:54;99613.09;;;37.82;15.67
68634;BME280;55625;47.072;22.192;2022-07-22T13:30:21;99616.94;;;37.97;15.19
68634;BME280;55625;47.072;22.192;2022-07-22T13:32:46;99617.09;;;38.12;15.33
68634;BME280;55625;47.072;22.192;2022-07-22T13:35:12;99620.16;;;37.89;14.92
68634;BME280;55625;47.072;22.192;2022-07-22T13:37:38;99612.38;;;37.58;15.47
68634;BME280;55625;47.072;22.192;2022-07-22T13:40:05;99617.53;;;37.58;15.96
68634;BME280;55625;47.072;22.192;2022-07-22T13:42:31;99622.44;;;37.53;15.47